Hayley, Arkansas
Current Conditions -  °F | °C
As of 11:56 PM on Wednesday 26 Nov 2014 (Local Time) from KSRC Reporting Station
Clear Clear  
Wind Chill: 36°   Ceiling: Unl
Heat Index: 41°   Visibility: 10mi
Dew Point: 28°   Wind: 7mph
Humidity: 60%   Direction: 300°WNW
Pressure: 30.28"   Gusts: NA
Location:  34.9712°N, 91.571°W
Report Text: KSRC 270556Z AUTO 30006KT 10SM CLR 05/M02 A3028 RMK AO2 SLP262 T00501022 10089 21006 53026 TSNO
Loading
Personal Weather Stations






























Interactive Weather Map New forecast layout! Learn more

10-Day Weather Forecast

Advertisements
Track Severe Weather on mobile